Time;durP1;ratioP1;P1;durP2;ratioP2;P2;SDS_P1;SDS_P2;PMS_P1;PMS_P2;Temp;Humidity;BMP_temperature;BMP_pressure;BME280_temperature;BME280_humidity;BME280_pressure;Samples;Min_cycle;Max_cycle;Signal;HPM_P1;HPM_P2
2023/06/10 00:00:45;;;;;;;4.82;3.42;;;24.80;49.00;;;;;;4950817;28;20029;-68
2023/06/10 00:03:10;;;;;;;4.33;3.70;;;24.80;49.00;;;;;;4953766;28;20041;-68
2023/06/10 00:05:38;;;;;;;4.72;4.20;;;24.70;49.00;;;;;;4988549;28;20034;-68
2023/06/10 00:08:08;;;;;;;4.20;3.80;;;24.70;49.10;;;;;;4981916;28;20030;-68
2023/06/10 00:10:35;;;;;;;4.43;3.60;;;24.70;49.30;;;;;;4955532;28;20106;-68
2023/06/10 00:13:02;;;;;;;4.85;3.90;;;24.60;49.40;;;;;;4980643;28;20118;-68
2023/06/10 00:15:29;;;;;;;4.90;3.50;;;24.50;49.40;;;;;;4953489;28;20962;-68
2023/06/10 00:17:55;;;;;;;4.18;3.35;;;24.50;49.50;;;;;;4980383;28;20472;-68
2023/06/10 00:20:23;;;;;;;4.77;3.50;;;24.50;49.60;;;;;;4959798;28;20856;-68
2023/06/10 00:22:49;;;;;;;4.68;3.83;;;24.40;49.70;;;;;;4962707;28;20373;-68
2023/06/10 00:25:15;;;;;;;4.53;3.75;;;24.40;49.80;;;;;;4974953;28;20045;-68
2023/06/10 00:27:41;;;;;;;4.53;4.03;;;24.30;49.90;;;;;;4944935;28;20030;-68
2023/06/10 00:30:08;;;;;;;4.90;3.83;;;24.30;50.00;;;;;;4966284;28;20065;-68
2023/06/10 00:32:34;;;;;;;5.10;3.90;;;24.20;50.30;;;;;;4973153;28;20092;-68
2023/06/10 00:35:00;;;;;;;4.03;3.60;;;24.20;50.30;;;;;;4963513;28;20109;-68
2023/06/10 00:37:26;;;;;;;4.40;3.63;;;24.10;50.30;;;;;;4967014;28;20315;-68
2023/06/10 00:39:51;;;;;;;5.87;4.10;;;24.10;50.40;;;;;;4972430;28;20290;-68
2023/06/10 00:42:17;;;;;;;4.25;3.80;;;24.10;50.60;;;;;;4943586;28;20702;-68
2023/06/10 00:44:43;;;;;;;4.40;4.00;;;24.00;50.70;;;;;;4977609;28;20026;-68
2023/06/10 00:47:08;;;;;;;4.75;3.70;;;24.00;50.70;;;;;;4946762;28;20096;-68
2023/06/10 00:49:35;;;;;;;5.23;3.80;;;23.90;50.80;;;;;;4965920;28;20034;-68
2023/06/10 00:52:03;;;;;;;5.13;3.70;;;23.90;50.90;;;;;;4973509;28;20084;-68
2023/06/10 00:54:29;;;;;;;4.53;3.80;;;23.90;51.20;;;;;;4982502;28;20022;-68
2023/06/10 00:56:56;;;;;;;4.22;3.60;;;23.80;51.00;;;;;;4954065;28;20038;-68
2023/06/10 00:59:21;;;;;;;4.10;3.50;;;23.80;51.20;;;;;;4958006;28;20453;-68
2023/06/10 01:01:47;;;;;;;5.57;4.15;;;23.80;51.30;;;;;;4959036;28;20288;-68
2023/06/10 01:04:14;;;;;;;4.55;3.97;;;23.70;51.40;;;;;;4941639;28;20263;-68
2023/06/10 01:06:47;;;;;;;5.25;3.60;;;23.70;51.60;;;;;;4966477;28;20200;-68
2023/06/10 01:09:28;;;;;;;5.20;3.67;;;23.70;52.10;;;;;;4970887;28;20244;-68
2023/06/10 01:12:08;;;;;;;4.88;3.80;;;23.70;52.70;;;;;;4953678;28;20045;-68
2023/06/10 01:14:33;;;;;;;4.63;3.80;;;23.60;52.60;;;;;;4944951;28;20359;-68
2023/06/10 01:17:00;;;;;;;4.53;3.63;;;23.60;51.90;;;;;;4958457;28;20054;-68
2023/06/10 01:19:26;;;;;;;4.38;3.50;;;23.60;52.10;;;;;;4964644;28;20066;-68
2023/06/10 01:21:51;;;;;;;4.18;3.78;;;23.50;52.10;;;;;;4972512;28;20137;-68
2023/06/10 01:24:18;;;;;;;5.03;3.70;;;23.50;52.20;;;;;;4970063;28;20441;-68
2023/06/10 01:26:48;;;;;;;4.53;3.67;;;23.40;52.50;;;;;;4982129;28;20056;-68
2023/06/10 01:29:28;;;;;;;5.15;3.80;;;23.50;52.60;;;;;;4951356;28;20404;-68
2023/06/10 01:32:33;;;;;;;4.68;3.75;;;23.40;53.40;;;;;;4962340;28;20047;-68
2023/06/10 01:35:01;;;;;;;5.63;3.85;;;23.40;53.70;;;;;;4964304;28;20447;-68
2023/06/10 01:37:27;;;;;;;4.23;3.80;;;23.30;52.70;;;;;;4971053;28;20945;-68
2023/06/10 01:39:57;;;;;;;4.38;3.80;;;23.20;52.70;;;;;;4981167;28;20030;-68
2023/06/10 01:42:24;;;;;;;4.63;3.90;;;23.20;53.20;;;;;;4981976;28;20049;-68
2023/06/10 01:44:50;;;;;;;6.22;4.50;;;23.20;53.10;;;;;;4950366;28;20026;-68
2023/06/10 01:47:16;;;;;;;5.13;3.77;;;23.10;53.20;;;;;;4953260;28;20037;-68
2023/06/10 01:49:42;;;;;;;4.93;3.97;;;23.10;53.30;;;;;;4962879;28;20673;-68
2023/06/10 01:52:08;;;;;;;5.30;4.30;;;23.10;53.50;;;;;;4951618;28;20257;-68
2023/06/10 01:54:34;;;;;;;4.82;4.07;;;23.00;53.50;;;;;;4974332;28;20034;-68
2023/06/10 01:57:03;;;;;;;5.80;4.10;;;23.00;53.60;;;;;;4980926;28;20420;-68
2023/06/10 01:59:29;;;;;;;4.55;4.05;;;23.00;53.70;;;;;;4945815;28;20473;-68
2023/06/10 02:01:54;;;;;;;4.30;3.90;;;22.90;53.90;;;;;;4968600;28;20044;-68
2023/06/10 02:04:20;;;;;;;5.13;3.97;;;22.90;53.90;;;;;;4954749;28;20044;-68
2023/06/10 02:06:46;;;;;;;5.43;4.07;;;22.90;54.00;;;;;;4948239;28;20051;-68
2023/06/10 02:09:11;;;;;;;5.73;4.40;;;22.90;54.10;;;;;;4962320;28;20022;-68
2023/06/10 02:11:37;;;;;;;6.13;4.10;;;22.90;54.20;;;;;;4972283;28;20083;-68
2023/06/10 02:14:03;;;;;;;4.50;3.90;;;22.90;54.40;;;;;;4968308;28;20043;-68
2023/06/10 02:16:29;;;;;;;4.72;3.88;;;22.80;54.30;;;;;;4945604;28;20586;-68
2023/06/10 02:18:55;;;;;;;4.50;3.77;;;22.80;54.40;;;;;;4952366;28;20474;-68
2023/06/10 02:21:20;;;;;;;4.68;3.92;;;22.80;54.50;;;;;;4959008;28;20391;-68
2023/06/10 02:23:46;;;;;;;7.13;4.20;;;22.80;54.70;;;;;;4951743;28;20113;-68
2023/06/10 02:26:12;;;;;;;4.50;4.05;;;22.70;54.90;;;;;;4967887;28;20256;-68
2023/06/10 02:28:37;;;;;;;5.00;4.17;;;22.70;54.90;;;;;;4951650;28;20480;-68
2023/06/10 02:31:03;;;;;;;4.35;3.95;;;22.70;55.00;;;;;;4950376;28;20105;-69
2023/06/10 02:33:29;;;;;;;4.75;4.10;;;22.60;55.00;;;;;;4949335;28;20767;-68
2023/06/10 02:35:56;;;;;;;5.57;3.93;;;22.60;55.20;;;;;;4964504;28;20106;-68
2023/06/10 02:38:21;;;;;;;4.63;3.80;;;22.60;55.30;;;;;;4949143;28;20408;-68
2023/06/10 02:40:47;;;;;;;7.03;4.23;;;22.60;55.40;;;;;;4975757;28;20645;-67
2023/06/10 02:43:13;;;;;;;5.03;4.18;;;22.50;55.40;;;;;;4978448;28;20819;-68
2023/06/10 02:45:38;;;;;;;5.20;4.20;;;22.50;55.40;;;;;;4979900;28;20034;-68
2023/06/10 02:48:04;;;;;;;5.60;4.37;;;22.40;55.50;;;;;;4939148;28;20285;-68
2023/06/10 02:50:30;;;;;;;4.93;4.10;;;22.40;55.50;;;;;;4952231;28;20572;-68
2023/06/10 02:52:56;;;;;;;5.73;4.10;;;22.40;55.70;;;;;;4957970;28;20096;-68
2023/06/10 02:55:21;;;;;;;5.00;4.10;;;22.30;55.80;;;;;;4959553;28;20500;-68
2023/06/10 02:57:47;;;;;;;5.30;4.33;;;22.30;55.90;;;;;;4956637;28;20022;-68
2023/06/10 03:00:14;;;;;;;5.13;4.43;;;22.20;55.90;;;;;;4961543;28;20038;-68
2023/06/10 03:02:39;;;;;;;5.03;4.30;;;22.20;56.00;;;;;;4953193;28;20678;-68
2023/06/10 03:05:09;;;;;;;5.40;4.25;;;22.20;56.20;;;;;;4929658;28;20046;-68
2023/06/10 03:07:36;;;;;;;4.93;4.35;;;22.10;56.30;;;;;;4967462;28;20186;-68
2023/06/10 03:10:02;;;;;;;4.47;4.00;;;22.10;56.40;;;;;;4945558;28;20026;-68
2023/06/10 03:12:28;;;;;;;5.73;4.30;;;22.10;56.50;;;;;;4979209;28;20030;-68
2023/06/10 03:14:54;;;;;;;4.78;4.03;;;22.00;56.60;;;;;;4976532;28;20838;-68
2023/06/10 03:17:20;;;;;;;6.10;4.40;;;22.00;56.70;;;;;;4978797;28;20057;-68
2023/06/10 03:19:45;;;;;;;5.90;4.40;;;21.90;56.70;;;;;;4936444;28;20550;-68
2023/06/10 03:22:14;;;;;;;5.82;4.72;;;21.90;56.90;;;;;;4970246;28;20034;-68
2023/06/10 03:24:40;;;;;;;5.28;4.45;;;21.90;57.10;;;;;;4962727;28;20490;-69
2023/06/10 03:27:10;;;;;;;7.63;4.47;;;21.80;57.10;;;;;;4967361;28;20038;-68
2023/06/10 03:29:37;;;;;;;5.70;4.50;;;21.80;57.60;;;;;;4979324;28;20026;-68
2023/06/10 03:32:03;;;;;;;5.82;4.53;;;21.80;57.30;;;;;;4978363;28;20497;-68
2023/06/10 03:34:29;;;;;;;6.22;4.35;;;21.70;57.40;;;;;;4950763;28;20536;-68
2023/06/10 03:36:56;;;;;;;5.72;4.43;;;21.70;57.50;;;;;;4960317;28;20034;-68
2023/06/10 03:39:23;;;;;;;4.67;4.17;;;21.70;57.70;;;;;;4967089;28;20050;-68
2023/06/10 03:41:49;;;;;;;5.50;4.20;;;21.60;57.80;;;;;;4956696;28;20120;-68
2023/06/10 03:44:15;;;;;;;5.10;4.50;;;21.60;58.00;;;;;;4955875;28;20344;-68
2023/06/10 03:46:41;;;;;;;6.20;4.90;;;21.60;58.00;;;;;;4976928;28;20085;-68
2023/06/10 03:49:07;;;;;;;5.33;4.20;;;21.60;58.20;;;;;;4969673;28;20063;-68
2023/06/10 03:51:33;;;;;;;4.68;4.18;;;21.60;58.30;;;;;;4926595;28;20584;-68
2023/06/10 03:53:58;;;;;;;4.88;4.07;;;21.60;58.30;;;;;;4966255;28;20081;-68
2023/06/10 03:56:25;;;;;;;5.53;4.57;;;21.50;58.40;;;;;;4947908;28;20110;-68
2023/06/10 03:58:51;;;;;;;5.22;4.38;;;21.50;58.50;;;;;;4966960;28;20089;-68
2023/06/10 04:01:18;;;;;;;4.80;4.20;;;21.50;58.60;;;;;;4968026;28;20034;-68
2023/06/10 04:03:44;;;;;;;5.50;4.20;;;21.50;58.60;;;;;;4982176;28;20046;-68
2023/06/10 04:06:09;;;;;;;4.95;4.38;;;21.50;58.70;;;;;;4946370;28;20208;-68
2023/06/10 04:08:35;;;;;;;6.07;4.70;;;21.50;58.80;;;;;;4956315;28;20116;-68
2023/06/10 04:11:02;;;;;;;5.70;4.40;;;21.50;58.80;;;;;;4952995;28;20038;-68
2023/06/10 04:13:28;;;;;;;5.45;4.30;;;21.50;59.00;;;;;;4973512;28;20598;-68
2023/06/10 04:15:56;;;;;;;6.47;4.25;;;21.50;59.20;;;;;;4963299;28;20038;-68
2023/06/10 04:18:22;;;;;;;5.07;4.28;;;21.50;59.10;;;;;;4968629;28;20046;-68
2023/06/10 04:20:48;;;;;;;5.17;4.40;;;21.50;59.20;;;;;;4937654;28;20189;-68
2023/06/10 04:23:14;;;;;;;5.40;4.40;;;21.50;59.30;;;;;;4949393;28;20050;-68
2023/06/10 04:25:39;;;;;;;5.03;4.50;;;21.50;59.40;;;;;;4954239;28;20038;-68
2023/06/10 04:28:05;;;;;;;5.63;4.00;;;21.50;59.50;;;;;;4962838;28;20034;-68
2023/06/10 04:30:31;;;;;;;5.95;4.35;;;21.50;59.60;;;;;;4976088;28;20117;-68
2023/06/10 04:32:57;;;;;;;5.40;4.40;;;21.60;59.70;;;;;;4978250;28;20232;-68
2023/06/10 04:35:23;;;;;;;5.70;4.20;;;21.60;59.70;;;;;;4949060;28;20166;-68
2023/06/10 04:37:49;;;;;;;5.30;4.43;;;21.60;59.80;;;;;;4949928;28;21189;-68
2023/06/10 04:40:15;;;;;;;5.45;4.18;;;21.60;60.00;;;;;;4974598;28;20053;-68
2023/06/10 04:42:41;;;;;;;4.90;4.40;;;21.60;60.00;;;;;;4930599;28;20081;-68
2023/06/10 04:45:08;;;;;;;5.47;4.23;;;21.60;60.20;;;;;;4974746;28;20856;-68
2023/06/10 04:47:34;;;;;;;5.50;4.53;;;21.70;60.30;;;;;;4972114;28;20392;-68
2023/06/10 04:50:01;;;;;;;5.97;4.60;;;21.70;60.40;;;;;;4946192;28;20059;-68
2023/06/10 04:52:27;;;;;;;5.00;4.28;;;21.70;60.40;;;;;;4979751;28;20420;-68
2023/06/10 04:54:53;;;;;;;6.60;4.60;;;21.70;61.20;;;;;;4961684;28;20018;-68
2023/06/10 04:57:20;;;;;;;5.32;4.80;;;21.70;60.50;;;;;;4964019;28;20021;-68
2023/06/10 04:59:46;;;;;;;4.90;4.07;;;21.80;60.60;;;;;;4965649;28;20453;-68
2023/06/10 05:02:12;;;;;;;5.93;4.40;;;21.80;60.70;;;;;;4939399;28;20654;-68
2023/06/10 05:04:37;;;;;;;5.20;4.55;;;21.80;60.70;;;;;;4973893;28;20089;-68
2023/06/10 05:07:04;;;;;;;6.07;4.57;;;21.90;60.90;;;;;;4925565;28;20038;-68
2023/06/10 05:09:30;;;;;;;6.43;4.43;;;21.90;60.80;;;;;;4949191;28;20672;-68
2023/06/10 05:11:56;;;;;;;4.85;4.28;;;21.90;60.80;;;;;;4966214;28;20062;-69
2023/06/10 05:14:22;;;;;;;5.27;4.13;;;21.90;60.90;;;;;;4971613;28;20220;-68
2023/06/10 05:16:48;;;;;;;5.80;4.65;;;22.00;60.90;;;;;;4970504;28;20034;-68
2023/06/10 05:19:15;;;;;;;5.97;4.63;;;22.00;60.90;;;;;;4960764;28;20263;-68
2023/06/10 05:21:41;;;;;;;5.28;4.78;;;22.00;60.90;;;;;;4933661;28;20054;-68
2023/06/10 05:24:07;;;;;;;6.03;4.60;;;22.10;60.90;;;;;;4961484;28;20026;-68
2023/06/10 05:26:37;;;;;;;7.05;4.70;;;22.10;61.00;;;;;;4985628;28;20448;-68
2023/06/10 05:29:03;;;;;;;5.97;4.80;;;22.20;61.10;;;;;;4969626;28;20076;-68
2023/06/10 05:31:28;;;;;;;6.32;4.80;;;22.20;61.10;;;;;;4986387;28;20046;-68
2023/06/10 05:33:54;;;;;;;6.43;5.27;;;22.20;61.00;;;;;;4968649;28;20137;-68
2023/06/10 05:36:20;;;;;;;5.60;4.70;;;22.20;61.10;;;;;;4946686;28;20436;-68
2023/06/10 05:38:46;;;;;;;5.55;4.72;;;22.30;61.30;;;;;;4965828;28;20030;-68
2023/06/10 05:41:12;;;;;;;5.75;4.57;;;22.30;61.40;;;;;;4958566;28;20029;-68
2023/06/10 05:43:38;;;;;;;6.37;5.03;;;22.30;61.40;;;;;;4970458;28;20018;-68
2023/06/10 05:46:04;;;;;;;5.35;4.45;;;22.40;61.40;;;;;;4978448;28;20041;-68
2023/06/10 05:48:29;;;;;;;5.73;4.63;;;22.50;61.50;;;;;;4970899;28;20027;-68
2023/06/10 05:50:55;;;;;;;5.70;4.85;;;22.50;61.50;;;;;;4978934;28;20031;-68
2023/06/10 05:53:21;;;;;;;5.83;5.00;;;22.50;61.60;;;;;;4930379;28;20054;-68
2023/06/10 05:55:46;;;;;;;7.18;4.75;;;22.60;61.60;;;;;;4959567;28;20049;-68
2023/06/10 05:58:14;;;;;;;6.43;4.90;;;22.60;61.60;;;;;;4967288;28;20058;-68
2023/06/10 06:00:40;;;;;;;5.00;4.33;;;22.70;61.80;;;;;;4965902;28;20296;-68
2023/06/10 06:03:09;;;;;;;5.13;4.60;;;22.70;61.60;;;;;;4975247;28;20061;-68
2023/06/10 06:05:37;;;;;;;6.82;4.63;;;22.80;61.80;;;;;;4960477;28;20038;-68
2023/06/10 06:08:06;;;;;;;4.90;4.18;;;22.90;61.70;;;;;;4946672;28;20076;-68
2023/06/10 06:10:32;;;;;;;6.88;4.55;;;22.90;61.60;;;;;;4936349;28;20085;-68
2023/06/10 06:12:59;;;;;;;5.60;5.00;;;23.00;61.60;;;;;;4973234;28;20632;-68
2023/06/10 06:15:25;;;;;;;5.15;4.53;;;23.10;61.60;;;;;;4961684;28;20428;-68
2023/06/10 06:17:53;;;;;;;5.03;4.43;;;23.20;61.50;;;;;;4980656;28;20062;-68
2023/06/10 06:20:20;;;;;;;5.10;4.53;;;23.20;61.50;;;;;;4970439;28;20045;-68
2023/06/10 06:22:46;;;;;;;6.13;4.57;;;23.30;61.50;;;;;;4975517;28;20022;-68
2023/06/10 06:25:11;;;;;;;6.30;5.00;;;23.40;61.40;;;;;;4925727;28;20856;-68
2023/06/10 06:27:37;;;;;;;5.70;4.68;;;23.50;61.40;;;;;;4954888;28;20059;-68
2023/06/10 06:30:03;;;;;;;7.13;4.67;;;23.50;61.40;;;;;;4961902;28;20066;-68
2023/06/10 06:32:29;;;;;;;7.10;4.63;;;23.60;61.40;;;;;;4967479;28;20750;-68
2023/06/10 06:34:55;;;;;;;5.30;4.80;;;23.70;61.50;;;;;;4966413;28;20084;-68
2023/06/10 06:37:24;;;;;;;5.78;4.47;;;23.70;61.40;;;;;;4969544;28;20030;-68
2023/06/10 06:39:54;;;;;;;4.95;4.45;;;23.80;61.60;;;;;;4942569;28;20033;-68
2023/06/10 06:42:20;;;;;;;7.27;4.90;;;23.90;61.60;;;;;;4955204;28;20038;-68
2023/06/10 06:44:49;;;;;;;5.70;4.90;;;23.90;61.30;;;;;;4979367;28;20030;-68
2023/06/10 06:47:17;;;;;;;6.47;4.63;;;24.00;61.50;;;;;;4957439;28;20060;-68
2023/06/10 06:49:43;;;;;;;5.00;4.50;;;24.10;61.30;;;;;;4955081;28;20038;-68
2023/06/10 06:52:08;;;;;;;5.90;4.73;;;24.20;61.30;;;;;;4951739;28;20108;-68
2023/06/10 06:54:34;;;;;;;5.10;4.60;;;24.30;61.20;;;;;;4968156;28;20138;-68
2023/06/10 06:57:00;;;;;;;6.32;4.80;;;24.40;61.20;;;;;;4924070;28;20526;-69
2023/06/10 06:59:26;;;;;;;4.90;4.40;;;24.50;61.10;;;;;;4971891;28;20193;-68
2023/06/10 07:01:53;;;;;;;5.68;4.63;;;24.50;61.00;;;;;;4960559;28;20033;-68
2023/06/10 07:04:21;;;;;;;5.70;4.50;;;24.60;61.00;;;;;;4969625;28;20042;-68
2023/06/10 07:06:47;;;;;;;5.10;4.60;;;24.70;60.80;;;;;;4956403;28;20054;-68
2023/06/10 07:09:13;;;;;;;5.63;4.33;;;24.80;60.70;;;;;;4966007;28;20129;-68
2023/06/10 07:11:39;;;;;;;5.28;4.63;;;24.90;60.50;;;;;;4929363;28;20494;-68
2023/06/10 07:14:05;;;;;;;5.38;4.60;;;25.00;60.50;;;;;;4952892;28;20251;-69
2023/06/10 07:16:30;;;;;;;6.07;4.93;;;25.10;60.40;;;;;;4965564;28;20026;-68
2023/06/10 07:18:56;;;;;;;5.33;4.60;;;25.20;60.20;;;;;;4963380;28;20973;-68
2023/06/10 07:21:23;;;;;;;4.95;4.32;;;25.30;60.10;;;;;;4961203;28;20030;-68
2023/06/10 07:23:49;;;;;;;4.72;4.22;;;25.40;60.00;;;;;;4957544;28;20066;-69
2023/06/10 07:26:15;;;;;;;4.70;4.17;;;25.50;60.00;;;;;;4971520;28;20057;-69
2023/06/10 07:28:41;;;;;;;5.70;4.60;;;25.60;59.80;;;;;;4927134;28;20613;-68
2023/06/10 07:31:07;;;;;;;4.95;4.15;;;25.70;59.60;;;;;;4978554;28;20034;-68
2023/06/10 07:33:34;;;;;;;4.53;4.00;;;25.80;59.50;;;;;;4947041;28;20128;-68
2023/06/10 07:36:00;;;;;;;5.23;4.53;;;25.90;59.40;;;;;;4971723;28;20046;-68
2023/06/10 07:38:26;;;;;;;5.65;4.15;;;26.00;59.30;;;;;;4961444;28;20223;-68
2023/06/10 07:40:52;;;;;;;5.25;4.10;;;26.10;59.40;;;;;;4973054;28;20046;-69
2023/06/10 07:43:18;;;;;;;5.22;4.35;;;26.20;59.40;;;;;;4911752;28;20088;-69
2023/06/10 07:45:45;;;;;;;4.80;4.22;;;26.30;59.10;;;;;;4965267;28;20345;-69
2023/06/10 07:48:11;;;;;;;4.23;3.83;;;26.50;59.00;;;;;;4964518;28;20030;-69
2023/06/10 07:50:37;;;;;;;4.82;4.30;;;26.60;58.90;;;;;;4975992;28;20157;-68
2023/06/10 07:53:03;;;;;;;5.05;4.30;;;26.70;58.60;;;;;;4960328;28;20030;-68
2023/06/10 07:55:29;;;;;;;5.15;4.43;;;26.80;58.50;;;;;;4973067;28;20026;-69
2023/06/10 07:57:54;;;;;;;4.37;3.83;;;27.00;58.60;;;;;;4935781;28;20035;-69
2023/06/10 08:00:21;;;;;;;4.30;3.90;;;27.10;58.90;;;;;;4954204;28;20293;-69
2023/06/10 08:02:47;;;;;;;5.03;4.05;;;27.30;59.30;;;;;;4959538;28;23488;-69
2023/06/10 08:05:13;;;;;;;4.47;4.00;;;27.60;59.70;;;;;;4974325;28;20537;-69
2023/06/10 08:07:42;;;;;;;5.13;3.83;;;27.90;59.80;;;;;;4968870;28;20061;-69
2023/06/10 08:10:08;;;;;;;4.38;3.97;;;28.30;59.20;;;;;;4963466;28;20595;-68
2023/06/10 08:12:35;;;;;;;4.32;3.92;;;28.60;59.40;;;;;;4980834;28;20304;-69
2023/06/10 08:15:01;;;;;;;4.65;4.18;;;29.00;59.50;;;;;;4946368;28;20134;-68
2023/06/10 08:17:27;;;;;;;5.32;3.80;;;29.40;59.50;;;;;;4923138;28;20073;-69
2023/06/10 08:19:53;;;;;;;4.63;3.87;;;29.80;59.30;;;;;;4964379;28;20448;-69
2023/06/10 08:22:19;;;;;;;4.53;4.10;;;30.30;59.20;;;;;;4966691;28;20030;-69
2023/06/10 08:24:44;;;;;;;3.80;3.50;;;30.70;58.80;;;;;;4961614;28;20645;-69
2023/06/10 08:27:10;;;;;;;4.35;3.90;;;31.20;58.50;;;;;;4978448;28;20038;-69
2023/06/10 08:29:36;;;;;;;4.17;3.77;;;31.80;57.90;;;;;;4948617;28;20429;-69
2023/06/10 08:32:02;;;;;;;3.92;3.55;;;32.20;57.10;;;;;;4959346;28;20758;-69
2023/06/10 08:34:28;;;;;;;5.07;3.72;;;32.70;56.60;;;;;;4963398;28;20031;-69
2023/06/10 08:36:55;;;;;;;4.07;3.63;;;33.10;55.70;;;;;;4963822;28;20088;-69
2023/06/10 08:39:22;;;;;;;3.90;3.20;;;33.50;54.60;;;;;;4974849;28;20116;-69
2023/06/10 08:42:00;;;;;;;4.10;3.42;;;33.90;53.90;;;;;;4965972;28;20038;-69
2023/06/10 08:44:29;;;;;;;4.32;3.50;;;34.40;51.70;;;;;;4947930;28;20027;-68
2023/06/10 08:46:58;;;;;;;3.90;3.50;;;34.70;52.10;;;;;;4965860;28;20022;-67
2023/06/10 08:49:26;;;;;;;4.57;3.90;;;35.00;51.80;;;;;;4975314;28;20030;-67
2023/06/10 08:51:57;;;;;;;3.72;3.40;;;35.40;50.90;;;;;;4965538;28;20045;-66
2023/06/10 08:54:28;;;;;;;3.95;3.63;;;35.70;49.50;;;;;;4979284;28;20057;-68
2023/06/10 08:56:57;;;;;;;4.05;3.72;;;36.00;49.30;;;;;;4974898;28;20065;-66
2023/06/10 08:59:24;;;;;;;4.22;3.83;;;36.30;48.40;;;;;;4963272;28;20036;-66
2023/06/10 09:01:50;;;;;;;4.30;3.90;;;36.50;48.00;;;;;;4931315;28;20027;-67
2023/06/10 09:04:17;;;;;;;4.10;3.72;;;36.70;47.00;;;;;;4966617;28;20030;-67
2023/06/10 09:06:44;;;;;;;4.13;3.83;;;36.80;46.80;;;;;;4956161;28;20543;-67
2023/06/10 09:09:11;;;;;;;4.22;3.55;;;37.00;46.30;;;;;;4977879;28;20035;-67
2023/06/10 09:11:38;;;;;;;4.82;4.38;;;37.20;46.00;;;;;;4962091;28;20347;-68
2023/06/10 09:14:04;;;;;;;4.17;3.77;;;37.30;45.60;;;;;;4971829;28;20025;-67
2023/06/10 09:16:29;;;;;;;4.28;3.88;;;37.50;45.00;;;;;;4950099;28;20418;-67
2023/06/10 09:18:56;;;;;;;4.38;3.97;;;37.60;44.10;;;;;;4945559;28;21785;-67
2023/06/10 09:21:25;;;;;;;4.57;4.17;;;37.70;43.50;;;;;;4967106;28;20030;-66
2023/06/10 09:23:51;;;;;;;4.18;3.70;;;37.80;42.70;;;;;;4972740;28;20026;-67
2023/06/10 09:26:17;;;;;;;3.85;3.47;;;37.90;43.40;;;;;;4977068;28;20034;-67
2023/06/10 09:28:47;;;;;;;4.32;4.00;;;38.00;42.90;;;;;;4968364;28;20026;-68
2023/06/10 09:31:13;;;;;;;4.25;3.95;;;38.10;42.80;;;;;;4947054;28;20254;-67
2023/06/10 09:33:40;;;;;;;4.23;3.70;;;38.30;42.30;;;;;;4952302;28;20990;-68
2023/06/10 09:36:06;;;;;;;4.22;3.83;;;38.50;41.60;;;;;;4951945;28;20295;-66
2023/06/10 09:38:34;;;;;;;4.72;4.32;;;38.60;41.40;;;;;;4966808;28;20389;-68
2023/06/10 09:41:03;;;;;;;4.35;4.05;;;38.70;41.00;;;;;;4977893;28;20187;-66
2023/06/10 09:43:46;;;;;;;5.00;4.50;;;38.90;40.90;;;;;;4969808;28;20106;-66
2023/06/10 09:46:16;;;;;;;5.47;5.00;;;39.00;38.60;;;;;;4947769;28;20022;-68
2023/06/10 09:48:43;;;;;;;5.20;4.80;;;39.10;39.20;;;;;;4983888;28;20083;-66
2023/06/10 09:51:10;;;;;;;5.80;4.15;;;39.30;39.10;;;;;;4946456;28;20236;-68
2023/06/10 09:53:37;;;;;;;5.15;4.57;;;39.30;38.70;;;;;;4966389;28;20049;-66
2023/06/10 09:56:03;;;;;;;4.68;4.28;;;39.30;38.70;;;;;;4976839;28;20112;-67
2023/06/10 09:58:39;;;;;;;5.17;4.77;;;39.40;39.00;;;;;;4962658;28;20620;-66
2023/06/10 10:01:13;;;;;;;4.90;4.50;;;39.50;37.60;;;;;;4938316;28;20045;-68
2023/06/10 10:03:50;;;;;;;4.88;4.47;;;39.60;36.70;;;;;;4976432;28;20081;-67
2023/06/10 10:06:17;;;;;;;4.45;4.03;;;39.60;36.20;;;;;;4940659;28;20050;-67
2023/06/10 10:08:43;;;;;;;4.78;4.30;;;39.60;36.90;;;;;;4968563;28;20540;-67
2023/06/10 10:11:09;;;;;;;4.70;4.27;;;39.70;36.50;;;;;;4964221;28;20034;-67
2023/06/10 10:26:14;;;;;;;6.43;5.82;;;39.90;36.70;;;;;;5053956;27;20987;-65
2023/06/10 10:28:54;;;;;;;5.18;4.75;;;40.90;32.50;;;;;;5100609;27;20107;-65
2023/06/10 10:31:21;;;;;;;5.60;5.10;;;40.90;32.40;;;;;;5090323;27;20258;-65
2023/06/10 10:33:58;;;;;;;5.53;5.03;;;41.00;32.70;;;;;;5067593;27;20035;-65
2023/06/10 10:36:24;;;;;;;5.25;4.85;;;41.00;31.40;;;;;;5084529;27;20028;-65
2023/06/10 10:38:51;;;;;;;5.10;4.68;;;41.10;32.70;;;;;;5055154;28;20027;-65
2023/06/10 10:41:18;;;;;;;5.30;4.80;;;41.10;32.70;;;;;;5064517;27;20227;-65
2023/06/10 10:43:45;;;;;;;4.83;4.43;;;41.30;32.40;;;;;;5085295;27;20035;-65
2023/06/10 10:46:14;;;;;;;5.15;4.70;;;41.30;32.60;;;;;;5074244;28;20051;-65
2023/06/10 10:48:43;;;;;;;5.00;4.57;;;41.40;31.30;;;;;;5049896;27;20028;-65
2023/06/10 10:51:09;;;;;;;5.38;4.93;;;41.40;31.10;;;;;;5086919;27;20051;-65
2023/06/10 10:53:38;;;;;;;5.53;5.13;;;41.40;30.70;;;;;;5067280;27;20060;-65
2023/06/10 10:56:30;;;;;;;5.37;4.97;;;41.40;30.80;;;;;;5053435;27;20462;-65
2023/06/10 10:59:07;;;;;;;4.38;4.07;;;41.40;30.00;;;;;;5083180;27;20040;-65
2023/06/10 11:01:46;;;;;;;5.72;4.85;;;41.40;31.20;;;;;;5086780;27;20028;-65
2023/06/10 11:04:12;;;;;;;5.07;4.68;;;41.50;30.80;;;;;;5063809;27;20156;-65
2023/06/10 11:06:37;;;;;;;4.63;4.22;;;41.60;31.20;;;;;;5098914;27;20039;-65
2023/06/10 11:09:28;;;;;;;5.10;4.60;;;41.60;30.60;;;;;;5081138;27;20035;-65
2023/06/10 11:11:58;;;;;;;5.22;4.82;;;41.70;30.20;;;;;;5069720;27;20374;-65
2023/06/10 11:14:28;;;;;;;5.20;4.80;;;41.80;30.00;;;;;;5081545;27;20164;-65
2023/06/10 11:16:57;;;;;;;5.10;4.70;;;41.90;29.70;;;;;;5071174;28;20096;-65
2023/06/10 11:19:37;;;;;;;4.73;4.33;;;42.00;29.50;;;;;;5051110;28;20562;-65
2023/06/10 11:22:07;;;;;;;5.07;4.47;;;42.10;29.20;;;;;;5086995;28;20023;-65
2023/06/10 11:24:33;;;;;;;4.90;4.50;;;42.10;29.40;;;;;;5080729;28;20071;-65
2023/06/10 11:27:39;;;;;;;4.57;4.20;;;42.10;29.20;;;;;;5072562;28;20363;-65
2023/06/10 11:30:05;;;;;;;5.07;4.20;;;41.90;29.20;;;;;;5028020;28;20046;-65
2023/06/10 11:32:33;;;;;;;5.57;5.07;;;41.90;29.60;;;;;;5031998;27;20075;-65
2023/06/10 11:34:59;;;;;;;5.25;4.25;;;41.90;29.30;;;;;;5053439;28;20042;-65
2023/06/10 11:37:25;;;;;;;4.53;4.07;;;41.80;29.10;;;;;;5063843;27;20115;-65
2023/06/10 11:39:55;;;;;;;4.60;4.20;;;41.90;29.40;;;;;;5079625;27;20034;-65
2023/06/10 11:42:22;;;;;;;5.05;4.55;;;41.90;28.90;;;;;;5049742;28;20572;-64
2023/06/10 11:44:52;;;;;;;5.07;4.20;;;41.90;29.10;;;;;;5059992;28;20031;-65
2023/06/10 11:47:19;;;;;;;4.72;4.32;;;41.90;28.60;;;;;;5070521;28;20040;-66
2023/06/10 11:49:45;;;;;;;5.18;4.30;;;41.90;28.90;;;;;;5045822;28;20030;-65
2023/06/10 11:52:12;;;;;;;5.00;4.60;;;41.90;28.90;;;;;;5069803;28;20035;-65
2023/06/10 11:54:38;;;;;;;4.90;4.50;;;41.90;28.90;;;;;;5070682;27;20548;-65
2023/06/10 11:57:05;;;;;;;4.23;3.87;;;41.80;28.50;;;;;;5064092;28;20054;-65
2023/06/10 11:59:31;;;;;;;4.95;4.40;;;41.80;28.60;;;;;;5051534;28;20552;-65
2023/06/10 12:01:56;;;;;;;4.70;4.30;;;41.70;28.50;;;;;;5060287;28;20028;-65
2023/06/10 12:04:22;;;;;;;5.55;5.05;;;41.70;28.80;;;;;;5067170;27;20040;-65
2023/06/10 12:06:53;;;;;;;4.93;4.53;;;41.90;28.80;;;;;;5051204;27;20107;-65
2023/06/10 12:09:27;;;;;;;5.22;4.68;;;41.90;28.40;;;;;;5072881;27;20043;-65
2023/06/10 12:11:55;;;;;;;4.95;4.53;;;41.90;28.30;;;;;;5072639;28;20140;-64
2023/06/10 12:14:57;;;;;;;5.05;4.57;;;41.90;28.50;;;;;;5053166;27;20707;-65
2023/06/10 12:17:32;;;;;;;4.33;3.93;;;41.90;27.90;;;;;;5051275;28;20040;-65
2023/06/10 12:19:59;;;;;;;4.93;4.53;;;41.90;28.40;;;;;;5076548;27;20485;-65
2023/06/10 12:22:26;;;;;;;4.95;4.47;;;42.00;28.20;;;;;;5030270;27;20142;-65
2023/06/10 12:24:59;;;;;;;5.00;4.57;;;42.00;28.10;;;;;;5087722;27;20075;-64
2023/06/10 12:27:25;;;;;;;4.80;4.40;;;42.20;27.60;;;;;;5070698;27;20114;-64
2023/06/10 12:29:54;;;;;;;5.23;4.83;;;42.20;27.70;;;;;;5067484;27;20024;-64
2023/06/10 12:32:22;;;;;;;5.30;4.90;;;42.20;27.60;;;;;;5061564;28;20031;-65
2023/06/10 12:34:48;;;;;;;5.18;4.78;;;42.10;27.40;;;;;;5071550;28;20028;-65
2023/06/10 12:37:14;;;;;;;5.13;4.60;;;42.10;27.20;;;;;;5046149;28;20406;-64
2023/06/10 12:39:41;;;;;;;5.47;5.07;;;42.00;27.20;;;;;;5082785;28;20032;-65
2023/06/10 12:42:09;;;;;;;4.97;4.57;;;42.00;27.40;;;;;;5074395;28;20036;-65
2023/06/10 12:44:39;;;;;;;5.22;4.13;;;42.00;27.30;;;;;;5070773;28;20020;-65
2023/06/10 12:47:09;;;;;;;5.68;5.18;;;41.90;27.10;;;;;;5056428;28;20156;-65
2023/06/10 12:49:36;;;;;;;5.67;4.53;;;41.70;26.70;;;;;;5043534;28;20180;-65
2023/06/10 12:52:03;;;;;;;5.88;4.20;;;41.70;26.70;;;;;;5080742;27;20551;-65
2023/06/10 12:54:29;;;;;;;4.32;3.88;;;41.50;26.80;;;;;;5045083;27;20023;-65
2023/06/10 12:56:54;;;;;;;4.40;4.00;;;41.30;27.00;;;;;;5083657;27;20028;-64
2023/06/10 12:59:20;;;;;;;4.60;4.20;;;41.20;27.00;;;;;;5044162;27;20576;-64
2023/06/10 13:01:53;;;;;;;4.35;3.92;;;41.30;27.30;;;;;;5060214;28;20020;-65